Time;durP1;ratioP1;P1;durP2;ratioP2;P2;SDS_P1;SDS_P2;PMS_P1;PMS_P2;Temp;Humidity;BMP_temperature;BMP_pressure;BME280_temperature;BME280_humidity;BME280_pressure;Samples;Min_cycle;Max_cycle;Signal;HPM_P1;HPM_P2
2024/03/03 00:00:33;;;;;;;1.40;0.95;;;;;;;23.25;nan;97670.72;7393285;19;20401;-94
2024/03/03 00:03:02;;;;;;;1.13;1.05;;;;;;;23.13;nan;97684.91;7391594;19;20025;-91
2024/03/03 00:05:28;;;;;;;1.20;1.10;;;;;;;23.28;nan;97689.41;7392698;19;20014;-89
2024/03/03 00:07:54;;;;;;;2.85;1.50;;;;;;;22.08;nan;97697.19;7392248;19;20021;-87
2024/03/03 00:10:20;;;;;;;3.22;2.08;;;;;;;21.85;nan;97699.88;7393718;19;20554;-89
2024/03/03 00:12:47;;;;;;;1.05;1.05;;;;;;;21.81;nan;97702.38;7394607;19;20026;-90
2024/03/03 00:15:13;;;;;;;2.80;0.75;;;;;;;21.62;nan;97710.97;7396501;19;20018;-85
2024/03/03 00:17:39;;;;;;;1.55;0.70;;;;;;;21.57;nan;97714.91;7392080;19;20010;-82
2024/03/03 00:20:06;;;;;;;0.60;0.55;;;;;;;21.52;nan;97715.97;7390083;19;20081;-80
2024/03/03 00:22:32;;;;;;;0.35;0.20;;;;;;;21.58;nan;97716.38;7391226;19;20464;-81
2024/03/03 00:24:58;;;;;;;0.80;0.80;;;;;;;21.67;nan;97709.94;7391398;19;20018;-81
2024/03/03 00:27:29;;;;;;;0.60;0.60;;;;;;;22.00;nan;97710.81;7394608;19;20476;-82
2024/03/03 00:29:56;;;;;;;2.08;1.95;;;;;;;21.77;nan;97721.94;7392590;19;20480;-81
2024/03/03 00:32:22;;;;;;;1.10;0.73;;;;;;;21.44;nan;97723.91;7389441;19;20074;-81
2024/03/03 00:34:48;;;;;;;2.33;1.27;;;;;;;21.53;nan;97725.94;7389708;19;20022;-82
2024/03/03 00:37:18;;;;;;;0.65;0.60;;;;;;;21.63;nan;97720.97;7395635;19;20467;-81
2024/03/03 00:39:45;;;;;;;0.65;0.52;;;;;;;22.91;nan;97714.00;7390840;19;20015;-83
2024/03/03 00:42:11;;;;;;;2.55;1.02;;;;;;;21.70;nan;97720.06;7389481;19;20032;-81
2024/03/03 00:44:37;;;;;;;0.45;0.45;;;;;;;21.60;nan;97719.34;7393487;19;20029;-81
2024/03/03 00:47:03;;;;;;;1.27;0.98;;;;;;;21.35;nan;97727.50;7393384;19;20014;-81
2024/03/03 00:49:29;;;;;;;0.57;0.57;;;;;;;21.54;nan;97730.25;7390686;19;20022;-81
2024/03/03 00:51:55;;;;;;;6.63;1.10;;;;;;;21.95;nan;97728.16;7390535;19;20018;-81
2024/03/03 00:54:21;;;;;;;5.38;1.40;;;;;;;21.48;nan;97730.59;7389942;19;20018;-81
2024/03/03 00:56:48;;;;;;;1.90;1.33;;;;;;;20.10;nan;97732.44;7392510;19;20029;-81
2024/03/03 00:59:14;;;;;;;4.78;1.73;;;;;;;21.10;nan;97731.44;7390301;19;20026;-82
2024/03/03 01:01:40;;;;;;;3.33;0.73;;;;;;;21.41;nan;97730.75;7389749;19;20019;-83
2024/03/03 01:04:06;;;;;;;15.52;2.70;;;;;;;22.14;nan;97728.78;7389937;19;20014;-81
2024/03/03 01:06:32;;;;;;;0.68;0.50;;;;;;;22.78;nan;97723.09;7392240;19;20093;-82
2024/03/03 01:08:59;;;;;;;0.80;0.80;;;;;;;22.30;nan;97727.03;7389949;19;20505;-81
2024/03/03 01:11:25;;;;;;;0.75;0.50;;;;;;;22.37;nan;97737.41;7391675;19;20019;-82
2024/03/03 01:13:51;;;;;;;1.08;0.52;;;;;;;22.90;nan;97735.22;7391856;19;20014;-82
2024/03/03 01:16:17;;;;;;;0.63;0.63;;;;;;;22.73;nan;97761.06;7388865;19;20006;-81
2024/03/03 01:18:43;;;;;;;1.65;0.77;;;;;;;22.59;nan;97755.94;7390818;19;20026;-81
2024/03/03 01:21:09;;;;;;;3.03;1.33;;;;;;;22.49;nan;97758.09;7390120;19;20018;-82
2024/03/03 01:23:35;;;;;;;0.40;0.40;;;;;;;22.53;nan;97761.19;7390764;19;20451;-82
2024/03/03 01:26:01;;;;;;;1.38;0.93;;;;;;;21.85;nan;97762.22;7391018;19;20323;-81
2024/03/03 01:28:28;;;;;;;1.83;1.52;;;;;;;21.08;nan;97756.03;7391470;19;20043;-82
2024/03/03 01:30:54;;;;;;;1.48;1.08;;;;;;;20.68;nan;97761.56;7391435;19;20007;-82
2024/03/03 01:33:20;;;;;;;0.43;0.43;;;;;;;20.37;nan;97764.22;7387971;19;20034;-82
2024/03/03 01:35:46;;;;;;;0.98;0.80;;;;;;;21.32;nan;97768.34;7387868;19;20572;-82
2024/03/03 01:38:12;;;;;;;0.52;0.52;;;;;;;21.44;nan;97780.53;7386891;19;20352;-82
2024/03/03 01:40:38;;;;;;;0.57;0.57;;;;;;;21.53;nan;97782.56;7391236;19;20014;-82
2024/03/03 01:43:06;;;;;;;1.65;0.93;;;;;;;21.56;nan;97792.72;7388992;19;20007;-82
2024/03/03 01:45:32;;;;;;;2.38;0.73;;;;;;;21.80;nan;97797.25;7385595;19;20018;-82
2024/03/03 01:47:58;;;;;;;1.70;0.50;;;;;;;21.80;nan;97800.84;7387297;19;20018;-82
2024/03/03 01:50:26;;;;;;;0.60;0.60;;;;;;;21.90;nan;97800.81;7389113;19;20137;-82
2024/03/03 01:52:52;;;;;;;0.22;0.22;;;;;;;22.19;nan;97797.84;7388260;19;20026;-82
2024/03/03 01:55:21;;;;;;;2.38;1.30;;;;;;;22.27;nan;97804.81;7392554;19;20052;-82
2024/03/03 01:58:00;;;;;;;6.70;1.30;;;;;;;22.00;nan;97812.88;7393274;19;20083;-81
2024/03/03 02:00:32;;;;;;;1.17;0.63;;;;;;;22.02;nan;97815.84;7393010;19;20010;-82
2024/03/03 02:03:01;;;;;;;3.05;0.40;;;;;;;22.61;nan;97818.50;7393101;19;20011;-82
2024/03/03 02:05:28;;;;;;;5.35;1.63;;;;;;;22.49;nan;97817.66;7395389;19;20018;-82
2024/03/03 02:07:54;;;;;;;0.38;0.38;;;;;;;22.44;nan;97815.16;7392123;19;20491;-82
2024/03/03 02:10:22;;;;;;;1.83;1.15;;;;;;;22.66;nan;97813.09;7390822;19;20042;-82
2024/03/03 02:12:48;;;;;;;1.27;0.63;;;;;;;22.67;nan;97814.59;7393513;19;20019;-82
2024/03/03 02:15:17;;;;;;;1.70;1.05;;;;;;;22.63;nan;97820.00;7395846;19;20044;-82
2024/03/03 02:17:43;;;;;;;0.65;0.65;;;;;;;21.95;nan;97816.75;7391732;19;20082;-82
2024/03/03 02:20:10;;;;;;;2.70;0.52;;;;;;;21.83;nan;97818.75;7392061;19;20026;-82
2024/03/03 02:22:36;;;;;;;1.13;0.70;;;;;;;22.38;nan;97818.31;7393499;19;20022;-82
2024/03/03 02:25:04;;;;;;;1.90;1.17;;;;;;;22.25;nan;97818.09;7389633;19;20447;-82
2024/03/03 02:27:33;;;;;;;4.95;1.08;;;;;;;22.43;nan;97814.44;7397350;19;20050;-82
2024/03/03 02:29:59;;;;;;;0.77;0.77;;;;;;;22.87;nan;97818.78;7393076;19;20077;-82
2024/03/03 02:32:26;;;;;;;1.85;0.77;;;;;;;22.74;nan;97817.22;7393194;19;20474;-82
2024/03/03 02:34:56;;;;;;;0.90;0.80;;;;;;;22.91;nan;97816.94;7346945;19;2873164;-80
2024/03/03 02:37:22;;;;;;;1.48;1.23;;;;;;;23.14;nan;97822.72;7391104;19;20017;-82
2024/03/03 02:39:48;;;;;;;4.43;1.38;;;;;;;23.17;nan;97820.75;7394863;19;20074;-82
2024/03/03 02:42:14;;;;;;;1.27;1.13;;;;;;;24.15;nan;97822.72;7392713;19;20024;-82
2024/03/03 02:44:40;;;;;;;1.45;1.17;;;;;;;25.17;nan;97820.28;7395410;19;20058;-82
2024/03/03 02:47:06;;;;;;;3.03;0.73;;;;;;;24.93;nan;97818.16;7395142;19;20322;-82
2024/03/03 02:49:33;;;;;;;0.60;0.60;;;;;;;24.19;nan;97825.81;7397522;19;20019;-82
2024/03/03 02:51:59;;;;;;;4.25;0.65;;;;;;;23.89;nan;97833.16;7393671;19;20010;-82
2024/03/03 02:54:25;;;;;;;2.83;1.15;;;;;;;24.57;nan;97833.81;7391246;19;20015;-82
2024/03/03 02:56:51;;;;;;;1.65;0.88;;;;;;;25.21;nan;97842.56;7392981;19;20025;-82
2024/03/03 02:59:18;;;;;;;7.80;1.90;;;;;;;26.00;nan;97844.88;7395612;19;20013;-82
2024/03/03 03:01:44;;;;;;;4.80;0.82;;;;;;;26.23;nan;97847.56;7392966;19;20015;-82
2024/03/03 03:04:10;;;;;;;2.05;1.52;;;;;;;26.41;nan;97847.78;7395263;19;20014;-83
2024/03/03 03:06:36;;;;;;;3.47;1.38;;;;;;;26.54;nan;97844.94;7392998;19;20022;-82
2024/03/03 03:09:04;;;;;;;4.28;2.58;;;;;;;26.31;nan;97845.16;7394393;19;20014;-83
2024/03/03 03:11:30;;;;;;;5.07;1.27;;;;;;;26.14;nan;97854.94;7394517;19;20022;-82
2024/03/03 03:13:56;;;;;;;6.32;1.25;;;;;;;26.74;nan;97859.56;7394110;19;20401;-82
2024/03/03 03:16:22;;;;;;;0.70;0.70;;;;;;;26.87;nan;97868.13;7391924;19;20029;-82
2024/03/03 03:18:48;;;;;;;0.93;0.82;;;;;;;26.83;nan;97859.31;7393634;19;20018;-82
2024/03/03 03:21:15;;;;;;;8.82;1.02;;;;;;;26.82;nan;97872.13;7392094;19;20015;-82
2024/03/03 03:23:41;;;;;;;1.05;0.95;;;;;;;26.93;nan;97874.13;7393073;19;20019;-83
2024/03/03 03:26:07;;;;;;;1.13;1.02;;;;;;;26.97;nan;97868.63;7391589;19;20031;-82
2024/03/03 03:28:33;;;;;;;1.92;1.55;;;;;;;27.19;nan;97859.69;7393911;19;20378;-82
2024/03/03 03:30:59;;;;;;;0.65;0.57;;;;;;;27.05;nan;97871.88;7394874;19;20014;-82
2024/03/03 03:33:25;;;;;;;1.38;0.95;;;;;;;27.15;nan;97871.66;7393301;19;20036;-82
2024/03/03 03:35:51;;;;;;;3.40;1.33;;;;;;;27.09;nan;97873.47;7391324;19;20021;-82
2024/03/03 03:38:17;;;;;;;1.70;0.93;;;;;;;27.17;nan;97871.00;7393289;19;20497;-81
2024/03/03 03:40:44;;;;;;;1.58;1.17;;;;;;;27.37;nan;97874.91;7392457;19;20014;-82
2024/03/03 03:43:10;;;;;;;1.95;1.23;;;;;;;27.41;nan;97886.53;7392591;19;20010;-82
2024/03/03 03:45:36;;;;;;;7.03;1.63;;;;;;;27.12;nan;97877.88;7390985;19;20018;-83
2024/03/03 03:48:03;;;;;;;1.63;1.08;;;;;;;28.17;nan;97872.31;7392539;19;20021;-82
2024/03/03 03:50:29;;;;;;;4.85;1.75;;;;;;;28.33;nan;97879.50;7397063;19;20022;-82
2024/03/03 03:52:55;;;;;;;2.72;1.33;;;;;;;28.29;nan;97879.34;7393595;19;20022;-82
2024/03/03 03:55:21;;;;;;;2.95;0.93;;;;;;;28.34;nan;97888.84;7391143;19;20018;-82
2024/03/03 03:57:47;;;;;;;0.22;0.22;;;;;;;28.06;nan;97890.41;7390832;19;20018;-82
2024/03/03 04:00:14;;;;;;;3.60;1.25;;;;;;;27.94;nan;97895.53;7396716;19;20086;-82
2024/03/03 04:02:40;;;;;;;12.18;1.50;;;;;;;28.02;nan;97896.69;7391036;19;20078;-81
2024/03/03 04:05:06;;;;;;;1.65;0.80;;;;;;;28.09;nan;97895.56;7390952;19;20536;-82
2024/03/03 04:07:32;;;;;;;1.85;0.85;;;;;;;27.55;nan;97901.50;7393106;19;20010;-82
2024/03/03 04:09:58;;;;;;;6.22;0.93;;;;;;;27.29;nan;97906.66;7395734;19;20022;-82
2024/03/03 04:12:24;;;;;;;2.05;1.30;;;;;;;27.11;nan;97905.00;7391569;19;20022;-82
2024/03/03 04:14:51;;;;;;;1.88;1.13;;;;;;;26.77;nan;97910.44;7393306;19;20512;-82
2024/03/03 04:17:17;;;;;;;2.65;1.45;;;;;;;26.33;nan;97921.56;7388653;19;20382;-83
2024/03/03 04:19:43;;;;;;;2.10;0.95;;;;;;;26.50;nan;97918.22;7392150;19;20031;-82
2024/03/03 04:22:10;;;;;;;2.20;0.80;;;;;;;26.34;nan;97926.66;7389640;19;20018;-82
2024/03/03 04:24:37;;;;;;;1.05;1.00;;;;;;;26.36;nan;97926.03;7389383;19;20022;-82
2024/03/03 04:27:04;;;;;;;10.25;1.52;;;;;;;26.36;nan;97926.75;7392398;19;20022;-82
2024/03/03 04:29:30;;;;;;;3.92;1.23;;;;;;;26.30;nan;97926.44;7392428;19;20029;-82
2024/03/03 04:31:56;;;;;;;3.17;1.77;;;;;;;26.81;nan;97930.63;7393094;19;20039;-82
2024/03/03 04:34:25;;;;;;;1.88;1.77;;;;;;;26.79;nan;97944.81;7390026;19;20403;-82
2024/03/03 04:36:52;;;;;;;8.75;3.70;;;;;;;26.71;nan;97943.59;7388419;19;20353;-82
2024/03/03 04:39:18;;;;;;;4.25;2.80;;;;;;;26.72;nan;97943.00;7392433;19;20027;-82
2024/03/03 04:41:47;;;;;;;6.85;1.70;;;;;;;26.69;nan;97941.41;7390966;19;20025;-82
2024/03/03 04:44:13;;;;;;;0.75;0.52;;;;;;;26.61;nan;97940.22;7393630;19;20018;-82
2024/03/03 04:46:39;;;;;;;3.03;1.38;;;;;;;26.41;nan;97945.59;7387843;19;20351;-82
2024/03/03 04:49:05;;;;;;;23.98;1.75;;;;;;;26.46;nan;97950.16;7391619;19;20022;-82
2024/03/03 04:51:31;;;;;;;10.15;1.40;;;;;;;26.46;nan;97953.00;7394816;19;20030;-82
2024/03/03 04:53:58;;;;;;;14.13;3.25;;;;;;;26.15;nan;97952.72;7390186;19;20029;-82
2024/03/03 04:56:27;;;;;;;1.80;1.70;;;;;;;26.34;nan;97963.75;7389314;19;20486;-82
2024/03/03 04:58:53;;;;;;;0.70;0.70;;;;;;;26.34;nan;97969.47;7391032;19;20467;-82
2024/03/03 05:01:19;;;;;;;1.15;0.70;;;;;;;26.38;nan;97977.53;7389005;19;20366;-82
2024/03/03 05:03:46;;;;;;;1.10;0.73;;;;;;;26.31;nan;97976.44;7392558;19;20078;-82
2024/03/03 05:06:12;;;;;;;2.42;2.20;;;;;;;26.29;nan;97973.50;7390444;19;20011;-82
2024/03/03 05:08:38;;;;;;;3.10;1.23;;;;;;;26.12;nan;97976.78;7390719;19;20478;-81
2024/03/03 05:11:06;;;;;;;7.07;2.15;;;;;;;25.75;nan;97978.94;7391101;19;20015;-82
2024/03/03 05:13:33;;;;;;;2.47;0.93;;;;;;;25.66;nan;97985.56;7391095;19;20018;-82
2024/03/03 05:15:59;;;;;;;3.22;1.48;;;;;;;26.54;nan;97984.84;7393440;19;20010;-82
2024/03/03 05:18:25;;;;;;;0.50;0.50;;;;;;;26.06;nan;97987.84;7390433;19;20037;-82
2024/03/03 05:20:51;;;;;;;3.45;1.30;;;;;;;26.02;nan;97987.63;7390702;19;20479;-81
2024/03/03 05:23:20;;;;;;;4.32;1.58;;;;;;;25.36;nan;97990.94;7390284;19;20468;-82
2024/03/03 05:25:46;;;;;;;3.65;0.50;;;;;;;25.06;nan;97991.97;7391998;19;20043;-82
2024/03/03 05:28:13;;;;;;;2.15;0.60;;;;;;;25.49;nan;98001.72;7385995;19;20018;-82
2024/03/03 05:30:40;;;;;;;3.30;1.25;;;;;;;25.41;nan;98004.06;7388819;19;20604;-82
2024/03/03 05:33:07;;;;;;;1.35;0.40;;;;;;;25.72;nan;98003.00;7387814;19;20089;-82
2024/03/03 05:35:36;;;;;;;10.48;2.33;;;;;;;26.23;nan;98005.28;7391127;19;20494;-82
2024/03/03 05:38:02;;;;;;;5.63;2.38;;;;;;;25.92;nan;98010.63;7390424;19;20013;-82
2024/03/03 05:40:28;;;;;;;1.85;0.30;;;;;;;25.97;nan;98017.28;7390147;19;20333;-82
2024/03/03 05:42:54;;;;;;;1.60;1.33;;;;;;;26.56;nan;98019.22;7389994;19;20019;-82
2024/03/03 05:45:20;;;;;;;2.63;1.30;;;;;;;26.39;nan;98022.56;7391648;19;20301;-82
2024/03/03 05:47:47;;;;;;;0.82;0.65;;;;;;;26.21;nan;98032.94;7390048;19;20033;-82
2024/03/03 05:50:13;;;;;;;4.75;3.22;;;;;;;26.27;nan;98033.28;7389537;19;20014;-82
2024/03/03 05:52:39;;;;;;;2.15;1.77;;;;;;;24.91;nan;98043.75;7389907;19;20023;-82
2024/03/03 05:55:05;;;;;;;1.58;0.75;;;;;;;24.56;nan;98042.97;7389780;19;20085;-82
2024/03/03 05:57:31;;;;;;;4.20;1.48;;;;;;;24.52;nan;98048.38;7389303;19;20022;-82
2024/03/03 05:59:58;;;;;;;8.75;2.08;;;;;;;24.42;nan;98053.44;7389725;19;20022;-81
2024/03/03 06:02:24;;;;;;;1.00;1.00;;;;;;;23.53;nan;98050.44;7387232;19;20015;-82
2024/03/03 06:04:50;;;;;;;17.17;2.58;;;;;;;23.44;nan;98065.47;7388697;19;21711;-82
2024/03/03 06:07:16;;;;;;;0.98;0.70;;;;;;;23.74;nan;98069.59;7389579;19;20022;-82
2024/03/03 06:09:42;;;;;;;0.75;0.75;;;;;;;23.84;nan;98073.13;7389564;19;20019;-83
2024/03/03 06:12:08;;;;;;;24.55;1.10;;;;;;;24.18;nan;98066.84;7393789;19;20345;-82
2024/03/03 06:14:34;;;;;;;22.85;2.95;;;;;;;24.13;nan;98072.91;7390303;19;20368;-82
2024/03/03 06:17:00;;;;;;;1.17;0.52;;;;;;;24.13;nan;98076.47;7387194;19;20007;-83
2024/03/03 06:19:26;;;;;;;2.60;1.20;;;;;;;24.55;nan;98081.31;7385817;19;20402;-82
2024/03/03 06:21:52;;;;;;;2.53;1.33;;;;;;;24.56;nan;98088.50;7384715;19;20029;-82
2024/03/03 06:24:19;;;;;;;1.10;0.73;;;;;;;24.72;nan;98100.91;7386811;19;20030;-82
2024/03/03 06:26:46;;;;;;;1.45;1.35;;;;;;;24.77;nan;98108.38;7385222;19;20010;-83
2024/03/03 06:29:12;;;;;;;0.50;0.47;;;;;;;24.74;nan;98112.41;7388636;19;20011;-81
2024/03/03 06:31:45;;;;;;;1.02;1.02;;;;;;;24.93;nan;98109.38;7387894;19;20010;-81
2024/03/03 06:34:12;;;;;;;2.38;0.60;;;;;;;25.27;nan;98114.38;7392411;19;20006;-81
2024/03/03 06:36:39;;;;;;;1.83;1.67;;;;;;;25.27;nan;98114.38;7385289;19;20097;-81
2024/03/03 06:39:05;;;;;;;8.05;1.20;;;;;;;25.37;nan;98119.94;7388454;19;20015;-81
2024/03/03 06:41:31;;;;;;;4.32;0.98;;;;;;;25.05;nan;98115.84;7395515;19;20569;-81
2024/03/03 06:43:57;;;;;;;4.80;1.65;;;;;;;25.13;nan;98122.03;7396331;19;20098;-81
2024/03/03 06:46:23;;;;;;;1.63;1.23;;;;;;;25.23;nan;98136.91;7396129;19;20377;-81
2024/03/03 06:48:49;;;;;;;1.85;0.35;;;;;;;25.19;nan;98141.59;7393565;19;20015;-81
2024/03/03 06:51:15;;;;;;;1.38;1.00;;;;;;;25.09;nan;98144.59;7397127;19;20026;-80
2024/03/03 06:53:41;;;;;;;1.90;0.88;;;;;;;25.23;nan;98148.31;7393348;19;20018;-86
2024/03/03 06:56:15;;;;;;;1.38;0.77;;;;;;;25.20;nan;98158.09;7393309;19;20040;-81
2024/03/03 06:58:45;;;;;;;1.27;0.98;;;;;;;25.19;nan;98161.56;7393944;19;20014;-81
2024/03/03 07:01:12;;;;;;;3.75;2.38;;;;;;;25.24;nan;98155.50;7394730;19;20022;-86
2024/03/03 07:06:23;;;;;;;3.20;0.65;;;;;;;25.22;nan;98169.63;7394257;19;20657;-84
2024/03/03 07:08:49;;;;;;;1.02;1.02;;;;;;;25.22;nan;98175.31;7397485;19;20046;-84
2024/03/03 07:11:15;;;;;;;1.35;0.85;;;;;;;25.20;nan;98178.06;7396280;19;20019;-84
2024/03/03 07:13:41;;;;;;;1.08;0.43;;;;;;;25.24;nan;98184.00;7395255;19;20015;-82
2024/03/03 07:16:07;;;;;;;1.15;0.90;;;;;;;25.35;nan;98194.66;7392049;19;20333;-82
2024/03/03 07:18:33;;;;;;;5.65;0.98;;;;;;;25.28;nan;98203.44;7395271;19;20018;-82
2024/03/03 07:21:00;;;;;;;7.30;1.50;;;;;;;24.78;nan;98207.41;7398158;19;20078;-82
2024/03/03 07:23:26;;;;;;;3.33;0.75;;;;;;;24.82;nan;98212.63;7395445;19;20018;-82
2024/03/03 07:25:53;;;;;;;1.63;0.85;;;;;;;24.30;nan;98215.59;7394199;19;20376;-84
2024/03/03 07:28:19;;;;;;;1.42;0.65;;;;;;;24.26;nan;98217.41;7396885;19;20385;-82
2024/03/03 07:30:45;;;;;;;1.10;0.73;;;;;;;24.83;nan;98220.56;7396653;19;20026;-81
2024/03/03 07:33:11;;;;;;;1.35;1.25;;;;;;;24.31;nan;98227.72;7397320;19;20015;-82
2024/03/03 07:35:37;;;;;;;2.38;1.05;;;;;;;24.10;nan;98219.94;7391681;19;20085;-82
2024/03/03 07:38:03;;;;;;;0.40;0.40;;;;;;;24.00;nan;98224.91;7394406;19;20026;-81
2024/03/03 07:40:36;;;;;;;3.22;1.20;;;;;;;24.03;nan;98227.28;7397295;19;20014;-85
2024/03/03 07:43:04;;;;;;;2.42;1.52;;;;;;;24.08;nan;98220.53;7395267;19;20010;-85
2024/03/03 07:45:30;;;;;;;0.70;0.70;;;;;;;24.10;nan;98219.94;7394210;19;20014;-84
2024/03/03 07:47:56;;;;;;;8.95;1.40;;;;;;;24.16;nan;98223.19;7391644;19;20439;-85
2024/03/03 07:50:22;;;;;;;8.88;0.95;;;;;;;24.70;nan;98228.91;7393031;19;20492;-81
2024/03/03 07:52:48;;;;;;;8.23;2.00;;;;;;;24.88;nan;98229.38;7392255;19;20032;-82
2024/03/03 07:55:15;;;;;;;0.60;0.60;;;;;;;24.91;nan;98233.81;7395740;19;20018;-82
2024/03/03 07:57:41;;;;;;;1.27;0.47;;;;;;;24.68;nan;98237.31;7392171;19;20037;-82
2024/03/03 08:00:08;;;;;;;0.63;0.63;;;;;;;21.48;nan;98242.53;7392100;19;20025;-82
2024/03/03 08:02:38;;;;;;;0.22;0.22;;;;;;;21.46;nan;98253.69;7391151;19;20016;-82
2024/03/03 08:05:04;;;;;;;1.10;0.63;;;;;;;20.78;nan;98261.00;7392855;19;20011;-82
2024/03/03 08:07:31;;;;;;;1.95;0.98;;;;;;;20.67;nan;98263.59;7393997;19;20364;-82
2024/03/03 08:09:57;;;;;;;1.17;0.73;;;;;;;20.50;nan;98257.94;7397220;19;20344;-82
2024/03/03 08:12:23;;;;;;;1.90;1.17;;;;;;;19.68;nan;98267.34;7395885;19;20014;-82
2024/03/03 08:14:49;;;;;;;1.15;0.77;;;;;;;21.28;nan;98266.41;7392749;19;20029;-82
2024/03/03 08:17:15;;;;;;;1.17;0.52;;;;;;;21.87;nan;98276.09;7392626;19;20018;-82
2024/03/03 08:19:41;;;;;;;2.30;1.85;;;;;;;22.58;nan;98279.38;7393958;19;20020;-82
2024/03/03 08:22:09;;;;;;;4.32;1.17;;;;;;;22.81;nan;98275.34;7393364;19;20022;-82
2024/03/03 08:24:35;;;;;;;0.45;0.45;;;;;;;23.03;nan;98282.66;7395448;19;20043;-84
2024/03/03 08:27:01;;;;;;;3.45;1.65;;;;;;;23.19;nan;98278.91;7396600;19;20007;-85
2024/03/03 08:29:27;;;;;;;0.45;0.45;;;;;;;22.26;nan;98282.59;7395605;19;20013;-85
2024/03/03 08:31:53;;;;;;;2.28;1.70;;;;;;;21.90;nan;98296.84;7394545;19;20021;-85
2024/03/03 08:34:19;;;;;;;3.47;1.88;;;;;;;21.92;nan;98291.31;7393806;19;20026;-85
2024/03/03 08:36:45;;;;;;;1.52;0.88;;;;;;;21.96;nan;98294.47;7389272;19;20018;-84
2024/03/03 08:39:11;;;;;;;27.88;3.75;;;;;;;22.15;nan;98302.31;7389703;19;20514;-84
2024/03/03 08:41:41;;;;;;;2.75;2.53;;;;;;;22.11;nan;98304.84;7396250;19;20019;-86
2024/03/03 08:44:07;;;;;;;4.22;1.42;;;;;;;21.43;nan;98308.69;7392236;19;20494;-83
2024/03/03 08:46:34;;;;;;;1.60;0.95;;;;;;;20.57;nan;98316.50;7390961;19;20104;-80
2024/03/03 08:49:00;;;;;;;1.98;1.40;;;;;;;21.06;nan;98319.94;7391961;19;20019;-81
2024/03/03 08:51:27;;;;;;;3.75;2.42;;;;;;;20.97;nan;98329.06;7392613;19;20403;-81
2024/03/03 08:53:53;;;;;;;2.42;1.55;;;;;;;21.20;nan;98326.00;7391078;19;20534;-83
2024/03/03 08:56:21;;;;;;;4.97;1.13;;;;;;;21.42;nan;98332.69;7388208;19;20014;-83
2024/03/03 08:58:47;;;;;;;2.25;1.60;;;;;;;20.93;nan;98337.22;7391789;19;20014;-84
2024/03/03 09:01:14;;;;;;;4.20;3.50;;;;;;;20.75;nan;98340.63;7390303;19;20019;-83
2024/03/03 09:03:41;;;;;;;2.85;1.27;;;;;;;20.84;nan;98342.81;7392588;19;20030;-84
2024/03/03 09:06:07;;;;;;;6.55;1.98;;;;;;;21.02;nan;98341.47;7388933;19;20019;-85
2024/03/03 09:08:33;;;;;;;4.55;1.38;;;;;;;20.87;nan;98348.06;7389370;19;20373;-83
2024/03/03 09:11:02;;;;;;;0.70;0.70;;;;;;;20.60;nan;98344.38;7393196;19;20011;-82
2024/03/03 09:13:28;;;;;;;0.82;0.73;;;;;;;20.71;nan;98349.53;7389319;19;20541;-85
2024/03/03 09:15:54;;;;;;;4.53;0.93;;;;;;;20.62;nan;98347.38;7392764;19;20349;-82
2024/03/03 09:18:20;;;;;;;2.83;1.00;;;;;;;20.26;nan;98356.41;7390947;19;20128;-83
2024/03/03 09:20:46;;;;;;;1.08;0.90;;;;;;;19.80;nan;98360.09;7389620;19;20033;-84
2024/03/03 09:23:12;;;;;;;4.50;0.60;;;;;;;19.99;nan;98358.28;7389709;19;20043;-82
2024/03/03 09:25:38;;;;;;;3.50;1.55;;;;;;;20.05;nan;98364.47;7387278;19;20019;-82
2024/03/03 09:28:05;;;;;;;0.90;0.90;;;;;;;19.68;nan;98354.91;7392174;19;20014;-82
2024/03/03 09:30:32;;;;;;;0.93;0.93;;;;;;;19.32;nan;98354.53;7389357;19;20018;-81
2024/03/03 09:32:58;;;;;;;4.53;0.88;;;;;;;19.10;nan;98358.19;7387964;19;20014;-82
2024/03/03 09:35:24;;;;;;;4.05;1.33;;;;;;;19.85;nan;98364.78;7390077;19;20100;-82
2024/03/03 09:37:50;;;;;;;3.47;1.08;;;;;;;19.31;nan;98363.56;7388493;19;20780;-85
2024/03/03 09:40:17;;;;;;;1.33;1.27;;;;;;;18.74;nan;98375.44;7394405;19;20018;-85
2024/03/03 09:42:45;;;;;;;3.50;1.35;;;;;;;18.63;nan;98369.44;7390146;19;20014;-87
2024/03/03 09:45:14;;;;;;;1.48;0.88;;;;;;;19.53;nan;98374.03;7389704;19;20031;-86
2024/03/03 09:47:41;;;;;;;4.28;1.08;;;;;;;19.10;nan;98380.03;7388506;19;20077;-87
2024/03/03 09:50:12;;;;;;;1.65;0.70;;;;;;;20.93;nan;98378.94;7389886;19;20014;-86
2024/03/03 09:52:42;;;;;;;1.80;1.65;;;;;;;21.54;nan;98384.63;7391905;19;20022;-85
2024/03/03 09:55:11;;;;;;;1.80;1.25;;;;;;;21.25;nan;98404.25;7388370;19;20018;-86
2024/03/03 09:57:38;;;;;;;1.00;0.85;;;;;;;21.54;nan;98401.63;7387826;19;20036;-86
2024/03/03 10:00:07;;;;;;;1.48;1.15;;;;;;;21.13;nan;98394.78;7387103;19;20328;-86
2024/03/03 10:02:41;;;;;;;0.55;0.50;;;;;;;21.25;nan;98400.66;7391035;19;20015;-86
2024/03/03 10:05:08;;;;;;;9.85;1.13;;;;;;;21.63;nan;98396.03;7386249;19;20018;-87
2024/03/03 10:07:45;;;;;;;1.77;1.67;;;;;;;21.65;nan;98398.28;7388680;19;20014;-85
2024/03/03 10:10:17;;;;;;;4.75;1.13;;;;;;;21.67;nan;98398.44;7389509;19;20359;-84
2024/03/03 10:12:46;;;;;;;15.95;1.08;;;;;;;21.49;nan;98405.47;7388312;19;20023;-88
2024/03/03 10:15:12;;;;;;;1.98;1.42;;;;;;;21.46;nan;98395.34;7395247;19;20022;-86
2024/03/03 10:17:38;;;;;;;3.40;2.08;;;;;;;21.39;nan;98402.59;7396009;19;20038;-86
2024/03/03 10:20:08;;;;;;;2.50;0.80;;;;;;;21.20;nan;98404.53;7396668;19;20014;-86
2024/03/03 10:22:35;;;;;;;0.98;0.88;;;;;;;21.09;nan;98406.50;7394960;19;20010;-85
2024/03/03 10:25:18;;;;;;;2.97;1.67;;;;;;;21.57;nan;98406.16;7398802;19;20019;-84
2024/03/03 10:27:47;;;;;;;1.15;0.90;;;;;;;21.76;nan;98406.25;7395071;19;20412;-84
2024/03/03 10:30:17;;;;;;;1.55;1.45;;;;;;;21.87;nan;98405.75;7391256;19;20014;-84
2024/03/03 10:32:45;;;;;;;1.48;0.63;;;;;;;21.41;nan;98410.50;7395026;19;20397;-84
2024/03/03 10:35:13;;;;;;;8.80;1.67;;;;;;;21.74;nan;98404.00;7395147;19;20400;-84
2024/03/03 10:37:55;;;;;;;1.92;0.88;;;;;;;22.69;nan;98407.88;7388443;19;20014;-84
2024/03/03 10:40:21;;;;;;;11.60;1.52;;;;;;;22.94;nan;98405.50;7395992;19;20345;-84
2024/03/03 10:42:48;;;;;;;2.95;1.52;;;;;;;23.08;nan;98415.09;7391596;19;20039;-85
2024/03/03 10:45:14;;;;;;;6.13;1.60;;;;;;;23.58;nan;98424.53;7391755;19;20574;-84
2024/03/03 10:47:41;;;;;;;6.13;1.88;;;;;;;23.54;nan;98432.03;7399790;19;20028;-84
2024/03/03 10:50:13;;;;;;;2.05;0.95;;;;;;;23.74;nan;98434.22;7396573;19;20484;-83
2024/03/03 10:52:39;;;;;;;3.50;2.03;;;;;;;23.04;nan;98431.84;7397686;19;20019;-84
2024/03/03 10:55:09;;;;;;;5.63;1.85;;;;;;;24.54;nan;98427.84;7393056;19;20031;-84
2024/03/03 10:57:36;;;;;;;9.95;3.13;;;;;;;23.04;nan;98434.69;7392639;19;20040;-84
2024/03/03 11:00:04;;;;;;;2.28;1.95;;;;;;;23.89;nan;98439.59;7396895;19;20011;-84
2024/03/03 11:02:30;;;;;;;16.60;1.60;;;;;;;24.12;nan;98439.13;7392583;19;20010;-83
2024/03/03 11:04:57;;;;;;;1.88;1.02;;;;;;;24.60;nan;98441.75;7390428;19;20022;-84
2024/03/03 11:07:24;;;;;;;1.67;0.85;;;;;;;24.55;nan;98443.59;7394018;19;20015;-84
2024/03/03 11:09:50;;;;;;;1.67;1.20;;;;;;;24.85;nan;98447.78;7399253;19;20022;-86
2024/03/03 11:12:20;;;;;;;3.72;1.40;;;;;;;26.47;nan;98454.16;7395485;19;20523;-86
2024/03/03 11:14:47;;;;;;;1.38;1.27;;;;;;;24.04;nan;98456.34;7395872;19;20022;-85
2024/03/03 11:17:26;;;;;;;3.85;1.63;;;;;;;23.83;nan;98459.06;7391335;19;20022;-91
2024/03/03 11:19:53;;;;;;;3.42;1.23;;;;;;;23.85;nan;98455.59;7393747;19;20014;-84
2024/03/03 11:22:23;;;;;;;10.95;2.92;;;;;;;23.92;nan;98454.69;7391765;19;20356;-86
2024/03/03 11:24:56;;;;;;;9.68;2.35;;;;;;;23.73;nan;98460.44;7392273;19;20022;-86
2024/03/03 11:27:26;;;;;;;5.28;1.63;;;;;;;23.89;nan;98461.56;7394358;19;20018;-86
2024/03/03 11:29:53;;;;;;;0.87;0.40;;;;;;;23.81;nan;98467.44;7395967;19;20391;-86
2024/03/03 11:32:23;;;;;;;1.85;1.45;;;;;;;23.69;nan;98466.53;7393816;19;20889;-86
2024/03/03 11:34:51;;;;;;;9.98;2.50;;;;;;;24.34;nan;98465.53;7389204;19;20394;-86
2024/03/03 11:37:18;;;;;;;11.90;2.72;;;;;;;24.33;nan;98469.72;7387623;19;20013;-86
2024/03/03 11:39:56;;;;;;;3.40;2.38;;;;;;;24.63;nan;98466.91;7393520;19;20337;-86
2024/03/03 11:42:31;;;;;;;2.80;0.52;;;;;;;24.98;nan;98470.03;7389864;19;20111;-86
2024/03/03 11:44:58;;;;;;;1.33;1.10;;;;;;;24.75;nan;98476.31;7396238;19;20054;-85
2024/03/03 11:47:29;;;;;;;6.13;2.55;;;;;;;25.15;nan;98469.03;7391503;19;20475;-85
2024/03/03 11:49:57;;;;;;;2.28;1.90;;;;;;;25.07;nan;98477.78;7394871;19;20014;-83